sensor_id;sensor_type;location;lat;lon;timestamp;P1;durP1;ratioP1;P2;durP2;ratioP2
13445;SDS011;6795;51.232;3.764;2022-07-23T00:00:52;11.57;;;6.30;;
13445;SDS011;6795;51.232;3.764;2022-07-23T00:03:21;11.73;;;6.63;;
13445;SDS011;6795;51.232;3.764;2022-07-23T00:05:51;12.77;;;6.72;;
13445;SDS011;6795;51.232;3.764;2022-07-23T00:08:19;12.13;;;7.57;;
13445;SDS011;6795;51.232;3.764;2022-07-23T00:10:48;10.55;;;6.80;;
13445;SDS011;6795;51.232;3.764;2022-07-23T00:13:16;11.55;;;7.10;;
13445;SDS011;6795;51.232;3.764;2022-07-23T00:15:44;10.68;;;6.47;;
13445;SDS011;6795;51.232;3.764;2022-07-23T00:18:13;12.07;;;7.45;;
13445;SDS011;6795;51.232;3.764;2022-07-23T00:20:41;13.82;;;6.45;;
13445;SDS011;6795;51.232;3.764;2022-07-23T00:23:11;12.73;;;6.57;;
13445;SDS011;6795;51.232;3.764;2022-07-23T00:25:39;8.40;;;5.97;;
13445;SDS011;6795;51.232;3.764;2022-07-23T00:28:07;11.77;;;6.57;;
13445;SDS011;6795;51.232;3.764;2022-07-23T00:30:36;10.43;;;7.57;;
13445;SDS011;6795;51.232;3.764;2022-07-23T00:33:05;9.52;;;7.32;;
13445;SDS011;6795;51.232;3.764;2022-07-23T00:35:35;19.20;;;7.60;;
13445;SDS011;6795;51.232;3.764;2022-07-23T00:38:07;15.95;;;7.03;;
13445;SDS011;6795;51.232;3.764;2022-07-23T00:40:38;10.55;;;7.40;;
13445;SDS011;6795;51.232;3.764;2022-07-23T00:43:06;12.85;;;7.28;;
13445;SDS011;6795;51.232;3.764;2022-07-23T00:45:35;12.90;;;6.88;;
13445;SDS011;6795;51.232;3.764;2022-07-23T00:48:03;18.75;;;7.78;;
13445;SDS011;6795;51.232;3.764;2022-07-23T00:50:32;14.68;;;8.38;;
13445;SDS011;6795;51.232;3.764;2022-07-23T00:53:00;14.60;;;7.70;;
13445;SDS011;6795;51.232;3.764;2022-07-23T00:55:29;16.48;;;8.18;;
13445;SDS011;6795;51.232;3.764;2022-07-23T00:57:59;18.42;;;8.52;;
13445;SDS011;6795;51.232;3.764;2022-07-23T01:00:29;13.23;;;8.30;;
13445;SDS011;6795;51.232;3.764;2022-07-23T01:02:57;13.23;;;7.32;;
13445;SDS011;6795;51.232;3.764;2022-07-23T01:05:26;16.25;;;8.75;;
13445;SDS011;6795;51.232;3.764;2022-07-23T01:07:54;14.35;;;7.90;;
13445;SDS011;6795;51.232;3.764;2022-07-23T01:10:23;12.23;;;7.68;;
13445;SDS011;6795;51.232;3.764;2022-07-23T01:13:03;16.65;;;7.85;;
13445;SDS011;6795;51.232;3.764;2022-07-23T01:15:34;14.48;;;7.80;;
13445;SDS011;6795;51.232;3.764;2022-07-23T01:18:03;14.35;;;8.15;;
13445;SDS011;6795;51.232;3.764;2022-07-23T01:20:33;17.50;;;7.80;;
13445;SDS011;6795;51.232;3.764;2022-07-23T01:23:03;17.35;;;9.25;;
13445;SDS011;6795;51.232;3.764;2022-07-23T01:25:31;15.52;;;9.32;;
13445;SDS011;6795;51.232;3.764;2022-07-23T01:27:59;14.70;;;7.85;;
13445;SDS011;6795;51.232;3.764;2022-07-23T01:30:28;16.98;;;9.05;;
13445;SDS011;6795;51.232;3.764;2022-07-23T01:32:57;15.05;;;8.80;;
13445;SDS011;6795;51.232;3.764;2022-07-23T01:35:25;17.50;;;9.73;;
13445;SDS011;6795;51.232;3.764;2022-07-23T01:37:53;22.52;;;9.40;;
13445;SDS011;6795;51.232;3.764;2022-07-23T01:40:23;18.40;;;8.73;;
13445;SDS011;6795;51.232;3.764;2022-07-23T01:42:53;21.48;;;9.48;;
13445;SDS011;6795;51.232;3.764;2022-07-23T01:45:21;19.83;;;9.25;;
13445;SDS011;6795;51.232;3.764;2022-07-23T01:47:50;18.27;;;9.15;;
13445;SDS011;6795;51.232;3.764;2022-07-23T01:50:19;17.52;;;8.48;;
13445;SDS011;6795;51.232;3.764;2022-07-23T01:52:47;15.10;;;8.15;;
13445;SDS011;6795;51.232;3.764;2022-07-23T01:55:15;18.45;;;9.70;;
13445;SDS011;6795;51.232;3.764;2022-07-23T01:57:46;19.40;;;9.65;;
13445;SDS011;6795;51.232;3.764;2022-07-23T02:00:14;21.23;;;10.25;;
13445;SDS011;6795;51.232;3.764;2022-07-23T02:02:43;22.88;;;9.38;;
13445;SDS011;6795;51.232;3.764;2022-07-23T02:05:11;19.10;;;9.98;;
13445;SDS011;6795;51.232;3.764;2022-07-23T02:07:40;21.67;;;10.27;;
13445;SDS011;6795;51.232;3.764;2022-07-23T02:10:09;18.95;;;9.02;;
13445;SDS011;6795;51.232;3.764;2022-07-23T02:12:37;19.73;;;8.82;;
13445;SDS011;6795;51.232;3.764;2022-07-23T02:15:08;24.00;;;10.38;;
13445;SDS011;6795;51.232;3.764;2022-07-23T02:17:39;22.48;;;10.00;;
13445;SDS011;6795;51.232;3.764;2022-07-23T02:20:08;22.95;;;10.15;;
13445;SDS011;6795;51.232;3.764;2022-07-23T02:22:37;26.02;;;11.13;;
13445;SDS011;6795;51.232;3.764;2022-07-23T02:25:07;20.85;;;9.73;;
13445;SDS011;6795;51.232;3.764;2022-07-23T02:27:36;16.80;;;9.18;;
13445;SDS011;6795;51.232;3.764;2022-07-23T02:30:05;23.17;;;9.50;;
13445;SDS011;6795;51.232;3.764;2022-07-23T02:32:35;20.90;;;9.82;;
13445;SDS011;6795;51.232;3.764;2022-07-23T02:35:06;19.33;;;8.65;;
13445;SDS011;6795;51.232;3.764;2022-07-23T02:37:35;19.55;;;8.55;;
13445;SDS011;6795;51.232;3.764;2022-07-23T02:40:03;20.00;;;8.95;;
13445;SDS011;6795;51.232;3.764;2022-07-23T02:42:32;20.55;;;8.10;;
13445;SDS011;6795;51.232;3.764;2022-07-23T02:45:00;18.73;;;8.82;;
13445;SDS011;6795;51.232;3.764;2022-07-23T02:47:29;23.88;;;10.55;;
13445;SDS011;6795;51.232;3.764;2022-07-23T02:49:59;27.23;;;10.45;;
13445;SDS011;6795;51.232;3.764;2022-07-23T02:52:29;24.83;;;11.05;;
13445;SDS011;6795;51.232;3.764;2022-07-23T02:54:57;28.98;;;11.65;;
13445;SDS011;6795;51.232;3.764;2022-07-23T02:57:25;27.13;;;11.05;;
13445;SDS011;6795;51.232;3.764;2022-07-23T02:59:54;30.17;;;11.07;;
13445;SDS011;6795;51.232;3.764;2022-07-23T03:02:22;28.90;;;11.05;;
13445;SDS011;6795;51.232;3.764;2022-07-23T03:04:51;27.70;;;10.07;;
13445;SDS011;6795;51.232;3.764;2022-07-23T03:07:20;30.17;;;11.43;;
13445;SDS011;6795;51.232;3.764;2022-07-23T03:09:49;29.45;;;10.55;;
13445;SDS011;6795;51.232;3.764;2022-07-23T03:12:17;22.08;;;9.65;;
13445;SDS011;6795;51.232;3.764;2022-07-23T03:14:45;20.50;;;9.25;;
13445;SDS011;6795;51.232;3.764;2022-07-23T03:17:15;25.45;;;9.27;;
13445;SDS011;6795;51.232;3.764;2022-07-23T03:19:43;29.92;;;11.35;;
13445;SDS011;6795;51.232;3.764;2022-07-23T03:22:11;28.27;;;11.52;;
13445;SDS011;6795;51.232;3.764;2022-07-23T03:24:41;31.65;;;10.68;;
13445;SDS011;6795;51.232;3.764;2022-07-23T03:27:22;27.80;;;10.02;;
13445;SDS011;6795;51.232;3.764;2022-07-23T03:29:51;34.25;;;11.27;;
13445;SDS011;6795;51.232;3.764;2022-07-23T03:32:20;35.75;;;12.45;;
13445;SDS011;6795;51.232;3.764;2022-07-23T03:34:48;30.48;;;11.70;;
13445;SDS011;6795;51.232;3.764;2022-07-23T03:37:17;28.73;;;14.70;;
13445;SDS011;6795;51.232;3.764;2022-07-23T03:39:48;32.15;;;14.95;;
13445;SDS011;6795;51.232;3.764;2022-07-23T03:42:17;36.78;;;15.32;;
13445;SDS011;6795;51.232;3.764;2022-07-23T03:44:45;40.15;;;16.17;;
13445;SDS011;6795;51.232;3.764;2022-07-23T03:47:13;31.98;;;13.88;;
13445;SDS011;6795;51.232;3.764;2022-07-23T03:49:43;39.42;;;16.38;;
13445;SDS011;6795;51.232;3.764;2022-07-23T03:52:11;40.88;;;17.92;;
13445;SDS011;6795;51.232;3.764;2022-07-23T03:54:40;29.95;;;14.80;;
13445;SDS011;6795;51.232;3.764;2022-07-23T03:57:09;34.15;;;15.15;;
13445;SDS011;6795;51.232;3.764;2022-07-23T03:59:38;33.92;;;16.35;;
13445;SDS011;6795;51.232;3.764;2022-07-23T04:02:06;38.08;;;15.93;;
13445;SDS011;6795;51.232;3.764;2022-07-23T04:04:35;35.50;;;15.80;;
13445;SDS011;6795;51.232;3.764;2022-07-23T04:07:03;37.92;;;16.63;;
13445;SDS011;6795;51.232;3.764;2022-07-23T04:09:33;33.55;;;16.38;;
13445;SDS011;6795;51.232;3.764;2022-07-23T04:12:01;41.63;;;17.33;;
13445;SDS011;6795;51.232;3.764;2022-07-23T04:14:31;37.85;;;17.42;;
13445;SDS011;6795;51.232;3.764;2022-07-23T04:17:00;48.10;;;20.80;;
13445;SDS011;6795;51.232;3.764;2022-07-23T04:19:28;44.22;;;18.50;;
13445;SDS011;6795;51.232;3.764;2022-07-23T04:21:57;44.63;;;18.45;;
13445;SDS011;6795;51.232;3.764;2022-07-23T04:24:26;34.20;;;16.75;;
13445;SDS011;6795;51.232;3.764;2022-07-23T04:26:54;39.85;;;18.25;;
13445;SDS011;6795;51.232;3.764;2022-07-23T04:29:22;39.80;;;17.95;;
13445;SDS011;6795;51.232;3.764;2022-07-23T04:31:52;44.35;;;20.85;;
13445;SDS011;6795;51.232;3.764;2022-07-23T04:34:20;42.70;;;20.25;;
13445;SDS011;6795;51.232;3.764;2022-07-23T04:36:49;48.08;;;21.38;;
13445;SDS011;6795;51.232;3.764;2022-07-23T04:39:17;44.75;;;20.13;;
13445;SDS011;6795;51.232;3.764;2022-07-23T04:41:46;38.75;;;18.73;;
13445;SDS011;6795;51.232;3.764;2022-07-23T04:44:14;42.00;;;16.02;;
13445;SDS011;6795;51.232;3.764;2022-07-23T04:46:43;39.55;;;17.25;;
13445;SDS011;6795;51.232;3.764;2022-07-23T04:49:14;41.60;;;16.67;;
13445;SDS011;6795;51.232;3.764;2022-07-23T04:51:44;44.15;;;19.27;;
13445;SDS011;6795;51.232;3.764;2022-07-23T04:54:12;42.85;;;20.45;;
13445;SDS011;6795;51.232;3.764;2022-07-23T04:56:40;46.25;;;20.42;;
13445;SDS011;6795;51.232;3.764;2022-07-23T04:59:09;35.75;;;16.95;;
13445;SDS011;6795;51.232;3.764;2022-07-23T05:01:37;38.75;;;19.10;;
13445;SDS011;6795;51.232;3.764;2022-07-23T05:04:05;39.63;;;18.50;;
13445;SDS011;6795;51.232;3.764;2022-07-23T05:06:36;37.78;;;19.23;;
13445;SDS011;6795;51.232;3.764;2022-07-23T05:09:05;42.42;;;20.33;;
13445;SDS011;6795;51.232;3.764;2022-07-23T05:11:33;31.88;;;18.35;;
13445;SDS011;6795;51.232;3.764;2022-07-23T05:14:01;29.98;;;16.98;;
13445;SDS011;6795;51.232;3.764;2022-07-23T05:16:29;37.53;;;17.52;;
13445;SDS011;6795;51.232;3.764;2022-07-23T05:18:58;28.63;;;15.52;;
13445;SDS011;6795;51.232;3.764;2022-07-23T05:21:27;24.08;;;14.88;;
13445;SDS011;6795;51.232;3.764;2022-07-23T05:23:56;27.17;;;15.73;;
13445;SDS011;6795;51.232;3.764;2022-07-23T05:26:25;31.00;;;14.40;;
13445;SDS011;6795;51.232;3.764;2022-07-23T05:28:54;22.73;;;14.35;;
13445;SDS011;6795;51.232;3.764;2022-07-23T05:31:22;23.88;;;13.57;;
13445;SDS011;6795;51.232;3.764;2022-07-23T05:33:50;16.98;;;11.98;;
13445;SDS011;6795;51.232;3.764;2022-07-23T05:36:19;18.02;;;11.82;;
13445;SDS011;6795;51.232;3.764;2022-07-23T05:38:47;15.05;;;10.23;;
13445;SDS011;6795;51.232;3.764;2022-07-23T05:41:17;17.92;;;9.45;;
13445;SDS011;6795;51.232;3.764;2022-07-23T05:43:45;16.98;;;9.68;;
13445;SDS011;6795;51.232;3.764;2022-07-23T05:46:14;12.60;;;8.18;;
13445;SDS011;6795;51.232;3.764;2022-07-23T05:48:42;9.82;;;7.30;;
13445;SDS011;6795;51.232;3.764;2022-07-23T05:51:12;8.57;;;6.30;;
13445;SDS011;6795;51.232;3.764;2022-07-23T05:53:41;8.10;;;6.07;;
13445;SDS011;6795;51.232;3.764;2022-07-23T05:56:09;7.43;;;5.40;;
13445;SDS011;6795;51.232;3.764;2022-07-23T05:58:39;7.13;;;5.90;;
13445;SDS011;6795;51.232;3.764;2022-07-23T06:01:07;5.22;;;4.32;;
13445;SDS011;6795;51.232;3.764;2022-07-23T06:03:36;4.15;;;3.78;;
13445;SDS011;6795;51.232;3.764;2022-07-23T06:06:05;6.50;;;4.13;;
13445;SDS011;6795;51.232;3.764;2022-07-23T06:08:33;6.32;;;4.20;;
13445;SDS011;6795;51.232;3.764;2022-07-23T06:11:01;5.68;;;5.18;;
13445;SDS011;6795;51.232;3.764;2022-07-23T06:13:30;6.13;;;4.15;;
13445;SDS011;6795;51.232;3.764;2022-07-23T06:15:59;5.30;;;4.65;;
13445;SDS011;6795;51.232;3.764;2022-07-23T06:18:28;7.32;;;3.97;;
13445;SDS011;6795;51.232;3.764;2022-07-23T06:20:56;4.93;;;3.90;;
13445;SDS011;6795;51.232;3.764;2022-07-23T06:23:26;7.72;;;4.15;;
13445;SDS011;6795;51.232;3.764;2022-07-23T06:25:54;5.95;;;3.53;;
13445;SDS011;6795;51.232;3.764;2022-07-23T06:28:23;6.40;;;5.25;;
13445;SDS011;6795;51.232;3.764;2022-07-23T06:30:51;5.45;;;4.95;;
13445;SDS011;6795;51.232;3.764;2022-07-23T06:33:21;5.00;;;4.55;;
13445;SDS011;6795;51.232;3.764;2022-07-23T06:35:50;5.18;;;4.07;;
13445;SDS011;6795;51.232;3.764;2022-07-23T06:38:18;6.65;;;4.40;;
13445;SDS011;6795;51.232;3.764;2022-07-23T06:40:47;6.57;;;4.50;;
13445;SDS011;6795;51.232;3.764;2022-07-23T06:43:15;5.75;;;4.57;;
13445;SDS011;6795;51.232;3.764;2022-07-23T06:45:43;5.43;;;4.40;;
13445;SDS011;6795;51.232;3.764;2022-07-23T06:48:12;5.38;;;4.63;;
13445;SDS011;6795;51.232;3.764;2022-07-23T06:50:42;6.60;;;5.30;;
13445;SDS011;6795;51.232;3.764;2022-07-23T06:53:10;4.32;;;4.03;;
13445;SDS011;6795;51.232;3.764;2022-07-23T06:55:38;4.78;;;4.07;;
13445;SDS011;6795;51.232;3.764;2022-07-23T06:58:07;5.43;;;3.85;;
13445;SDS011;6795;51.232;3.764;2022-07-23T07:00:36;7.32;;;3.65;;
13445;SDS011;6795;51.232;3.764;2022-07-23T07:03:05;3.70;;;2.92;;
13445;SDS011;6795;51.232;3.764;2022-07-23T07:05:33;4.03;;;3.05;;
13445;SDS011;6795;51.232;3.764;2022-07-23T07:08:03;4.35;;;3.95;;
13445;SDS011;6795;51.232;3.764;2022-07-23T07:10:32;4.00;;;3.63;;
13445;SDS011;6795;51.232;3.764;2022-07-23T07:13:00;4.07;;;3.70;;
13445;SDS011;6795;51.232;3.764;2022-07-23T07:15:28;4.10;;;3.58;;
13445;SDS011;6795;51.232;3.764;2022-07-23T07:17:57;4.90;;;4.40;;
13445;SDS011;6795;51.232;3.764;2022-07-23T07:20:25;4.10;;;3.60;;
13445;SDS011;6795;51.232;3.764;2022-07-23T07:22:53;4.50;;;4.03;;
13445;SDS011;6795;51.232;3.764;2022-07-23T07:25:23;5.05;;;3.67;;
13445;SDS011;6795;51.232;3.764;2022-07-23T07:27:51;5.43;;;3.60;;
13445;SDS011;6795;51.232;3.764;2022-07-23T07:30:20;5.43;;;4.10;;
13445;SDS011;6795;51.232;3.764;2022-07-23T07:32:48;9.85;;;4.18;;
13445;SDS011;6795;51.232;3.764;2022-07-23T07:35:22;5.95;;;4.20;;
13445;SDS011;6795;51.232;3.764;2022-07-23T07:37:51;6.15;;;3.53;;
13445;SDS011;6795;51.232;3.764;2022-07-23T07:40:19;7.80;;;3.63;;
13445;SDS011;6795;51.232;3.764;2022-07-23T07:42:51;4.13;;;3.63;;
13445;SDS011;6795;51.232;3.764;2022-07-23T07:45:20;4.55;;;3.28;;
13445;SDS011;6795;51.232;3.764;2022-07-23T07:47:50;4.45;;;3.60;;
13445;SDS011;6795;51.232;3.764;2022-07-23T07:50:20;5.88;;;4.85;;
13445;SDS011;6795;51.232;3.764;2022-07-23T07:52:49;9.38;;;4.65;;
13445;SDS011;6795;51.232;3.764;2022-07-23T07:55:17;5.22;;;4.35;;
13445;SDS011;6795;51.232;3.764;2022-07-23T07:57:46;4.88;;;3.95;;
13445;SDS011;6795;51.232;3.764;2022-07-23T08:00:16;4.53;;;4.13;;
13445;SDS011;6795;51.232;3.764;2022-07-23T08:02:46;4.97;;;4.40;;
13445;SDS011;6795;51.232;3.764;2022-07-23T08:05:18;4.78;;;3.78;;
13445;SDS011;6795;51.232;3.764;2022-07-23T08:07:53;6.10;;;4.20;;
13445;SDS011;6795;51.232;3.764;2022-07-23T08:10:22;4.53;;;3.92;;
13445;SDS011;6795;51.232;3.764;2022-07-23T08:12:51;5.88;;;3.75;;
13445;SDS011;6795;51.232;3.764;2022-07-23T08:15:23;5.32;;;4.07;;
13445;SDS011;6795;51.232;3.764;2022-07-23T08:17:52;4.65;;;3.13;;
13445;SDS011;6795;51.232;3.764;2022-07-23T08:20:22;5.57;;;3.55;;
13445;SDS011;6795;51.232;3.764;2022-07-23T08:22:55;5.25;;;3.95;;
13445;SDS011;6795;51.232;3.764;2022-07-23T08:25:24;4.75;;;3.88;;
13445;SDS011;6795;51.232;3.764;2022-07-23T08:27:54;5.60;;;4.18;;
13445;SDS011;6795;51.232;3.764;2022-07-23T08:30:24;4.85;;;3.63;;
13445;SDS011;6795;51.232;3.764;2022-07-23T08:32:56;8.30;;;3.78;;
13445;SDS011;6795;51.232;3.764;2022-07-23T08:35:27;4.95;;;4.53;;
13445;SDS011;6795;51.232;3.764;2022-07-23T08:37:58;4.50;;;4.10;;
13445;SDS011;6795;51.232;3.764;2022-07-23T08:40:28;5.93;;;4.10;;
13445;SDS011;6795;51.232;3.764;2022-07-23T08:42:58;5.88;;;4.18;;
13445;SDS011;6795;51.232;3.764;2022-07-23T08:45:28;5.03;;;3.53;;
13445;SDS011;6795;51.232;3.764;2022-07-23T08:47:57;4.93;;;3.85;;
13445;SDS011;6795;51.232;3.764;2022-07-23T08:50:28;4.55;;;3.83;;
13445;SDS011;6795;51.232;3.764;2022-07-23T08:52:57;5.68;;;4.32;;
13445;SDS011;6795;51.232;3.764;2022-07-23T08:55:29;5.03;;;3.88;;
13445;SDS011;6795;51.232;3.764;2022-07-23T08:57:57;5.50;;;4.07;;
13445;SDS011;6795;51.232;3.764;2022-07-23T09:00:25;5.30;;;4.80;;
13445;SDS011;6795;51.232;3.764;2022-07-23T09:02:55;6.75;;;4.20;;
13445;SDS011;6795;51.232;3.764;2022-07-23T09:05:24;5.35;;;4.40;;
13445;SDS011;6795;51.232;3.764;2022-07-23T09:08:08;5.65;;;4.20;;
13445;SDS011;6795;51.232;3.764;2022-07-23T09:10:49;5.47;;;4.75;;
13445;SDS011;6795;51.232;3.764;2022-07-23T09:13:23;6.95;;;4.82;;
13445;SDS011;6795;51.232;3.764;2022-07-23T09:16:00;4.93;;;4.43;;
13445;SDS011;6795;51.232;3.764;2022-07-23T09:18:32;4.97;;;4.53;;
13445;SDS011;6795;51.232;3.764;2022-07-23T09:21:05;5.20;;;4.13;;
13445;SDS011;6795;51.232;3.764;2022-07-23T09:23:38;5.05;;;4.22;;
13445;SDS011;6795;51.232;3.764;2022-07-23T09:26:22;6.40;;;4.18;;
13445;SDS011;6795;51.232;3.764;2022-07-23T09:28:54;6.10;;;4.57;;
13445;SDS011;6795;51.232;3.764;2022-07-23T09:31:24;4.88;;;4.45;;
13445;SDS011;6795;51.232;3.764;2022-07-23T09:34:07;4.70;;;3.60;;
13445;SDS011;6795;51.232;3.764;2022-07-23T09:36:37;5.55;;;4.68;;
13445;SDS011;6795;51.232;3.764;2022-07-23T09:39:06;4.97;;;3.78;;
13445;SDS011;6795;51.232;3.764;2022-07-23T09:41:41;4.90;;;3.75;;
13445;SDS011;6795;51.232;3.764;2022-07-23T09:44:12;6.97;;;4.20;;
13445;SDS011;6795;51.232;3.764;2022-07-23T09:46:43;6.03;;;3.75;;
13445;SDS011;6795;51.232;3.764;2022-07-23T09:49:15;4.47;;;4.00;;
13445;SDS011;6795;51.232;3.764;2022-07-23T09:51:44;3.55;;;3.15;;
13445;SDS011;6795;51.232;3.764;2022-07-23T09:57:01;3.05;;;2.72;;
13445;SDS011;6795;51.232;3.764;2022-07-23T09:59:33;3.95;;;3.30;;
13445;SDS011;6795;51.232;3.764;2022-07-23T10:02:03;3.42;;;2.80;;
13445;SDS011;6795;51.232;3.764;2022-07-23T10:04:33;2.75;;;2.55;;
13445;SDS011;6795;51.232;3.764;2022-07-23T10:07:04;5.25;;;2.90;;
13445;SDS011;6795;51.232;3.764;2022-07-23T10:09:35;4.63;;;3.97;;
13445;SDS011;6795;51.232;3.764;2022-07-23T10:12:06;4.07;;;3.75;;
13445;SDS011;6795;51.232;3.764;2022-07-23T10:14:49;3.85;;;3.42;;
13445;SDS011;6795;51.232;3.764;2022-07-23T10:17:17;5.43;;;4.07;;
13445;SDS011;6795;51.232;3.764;2022-07-23T10:19:47;6.25;;;4.13;;
13445;SDS011;6795;51.232;3.764;2022-07-23T10:22:18;6.00;;;4.10;;
13445;SDS011;6795;51.232;3.764;2022-07-23T10:24:59;5.00;;;4.57;;
13445;SDS011;6795;51.232;3.764;2022-07-23T10:27:45;5.10;;;4.60;;
13445;SDS011;6795;51.232;3.764;2022-07-23T10:30:30;5.13;;;4.63;;
13445;SDS011;6795;51.232;3.764;2022-07-23T10:36:03;9.25;;;6.07;;
13445;SDS011;6795;51.232;3.764;2022-07-23T10:38:37;7.88;;;6.55;;
13445;SDS011;6795;51.232;3.764;2022-07-23T10:41:14;8.07;;;6.10;;
13445;SDS011;6795;51.232;3.764;2022-07-23T10:44:05;8.45;;;7.57;;
13445;SDS011;6795;51.232;3.764;2022-07-23T10:49:42;7.20;;;6.00;;
13445;SDS011;6795;51.232;3.764;2022-07-23T10:52:22;8.95;;;6.45;;
13445;SDS011;6795;51.232;3.764;2022-07-23T10:54:52;8.73;;;6.30;;
13445;SDS011;6795;51.232;3.764;2022-07-23T10:57:21;8.60;;;6.53;;
13445;SDS011;6795;51.232;3.764;2022-07-23T11:00:08;8.93;;;6.30;;
13445;SDS011;6795;51.232;3.764;2022-07-23T11:02:44;6.28;;;5.68;;
13445;SDS011;6795;51.232;3.764;2022-07-23T11:05:14;9.60;;;6.47;;
13445;SDS011;6795;51.232;3.764;2022-07-23T11:10:54;6.45;;;5.65;;
13445;SDS011;6795;51.232;3.764;2022-07-23T11:13:45;7.72;;;5.88;;
13445;SDS011;6795;51.232;3.764;2022-07-23T11:16:24;11.40;;;6.90;;
13445;SDS011;6795;51.232;3.764;2022-07-23T11:18:59;9.55;;;6.47;;
13445;SDS011;6795;51.232;3.764;2022-07-23T11:24:23;11.30;;;10.15;;
13445;SDS011;6795;51.232;3.764;2022-07-23T11:27:01;10.80;;;8.25;;
13445;SDS011;6795;51.232;3.764;2022-07-23T11:29:46;18.98;;;10.75;;
13445;SDS011;6795;51.232;3.764;2022-07-23T11:35:19;14.00;;;10.23;;
13445;SDS011;6795;51.232;3.764;2022-07-23T11:38:03;9.35;;;8.40;;
13445;SDS011;6795;51.232;3.764;2022-07-23T11:40:35;12.85;;;9.65;;
13445;SDS011;6795;51.232;3.764;2022-07-23T11:43:05;10.20;;;8.45;;
13445;SDS011;6795;51.232;3.764;2022-07-23T11:45:35;14.90;;;10.65;;
13445;SDS011;6795;51.232;3.764;2022-07-23T11:48:05;12.98;;;9.82;;
13445;SDS011;6795;51.232;3.764;2022-07-23T11:50:35;9.20;;;8.30;;
13445;SDS011;6795;51.232;3.764;2022-07-23T11:53:04;10.48;;;9.02;;
13445;SDS011;6795;51.232;3.764;2022-07-23T11:55:32;14.07;;;9.23;;
13445;SDS011;6795;51.232;3.764;2022-07-23T11:58:01;9.20;;;8.05;;
13445;SDS011;6795;51.232;3.764;2022-07-23T12:00:30;8.07;;;7.07;;
13445;SDS011;6795;51.232;3.764;2022-07-23T12:03:05;7.80;;;6.65;;
13445;SDS011;6795;51.232;3.764;2022-07-23T12:05:35;6.03;;;5.53;;
13445;SDS011;6795;51.232;3.764;2022-07-23T12:08:05;9.38;;;5.90;;
13445;SDS011;6795;51.232;3.764;2022-07-23T12:10:36;4.40;;;4.03;;
13445;SDS011;6795;51.232;3.764;2022-07-23T12:13:06;3.60;;;3.30;;
13445;SDS011;6795;51.232;3.764;2022-07-23T12:15:38;3.72;;;2.90;;
13445;SDS011;6795;51.232;3.764;2022-07-23T12:18:09;2.60;;;2.20;;
13445;SDS011;6795;51.232;3.764;2022-07-23T12:20:39;3.72;;;2.78;;
13445;SDS011;6795;51.232;3.764;2022-07-23T12:23:09;2.35;;;2.15;;
13445;SDS011;6795;51.232;3.764;2022-07-23T12:25:46;3.90;;;2.75;;
13445;SDS011;6795;51.232;3.764;2022-07-23T12:28:19;2.92;;;2.67;;
13445;SDS011;6795;51.232;3.764;2022-07-23T12:30:50;2.83;;;2.05;;
13445;SDS011;6795;51.232;3.764;2022-07-23T12:33:23;2.63;;;1.85;;
13445;SDS011;6795;51.232;3.764;2022-07-23T12:35:53;3.90;;;1.70;;
13445;SDS011;6795;51.232;3.764;2022-07-23T12:38:24;4.97;;;2.17;;
13445;SDS011;6795;51.232;3.764;2022-07-23T12:40:54;3.63;;;2.85;;
13445;SDS011;6795;51.232;3.764;2022-07-23T12:43:24;2.40;;;2.08;;
13445;SDS011;6795;51.232;3.764;2022-07-23T12:45:56;3.25;;;2.42;;
13445;SDS011;6795;51.232;3.764;2022-07-23T12:48:30;2.22;;;2.03;;
13445;SDS011;6795;51.232;3.764;2022-07-23T12:51:04;2.60;;;1.90;;
13445;SDS011;6795;51.232;3.764;2022-07-23T12:53:36;2.47;;;2.28;;
13445;SDS011;6795;51.232;3.764;2022-07-23T12:56:08;3.58;;;2.13;;
13445;SDS011;6795;51.232;3.764;2022-07-23T12:58:40;2.10;;;1.95;;
13445;SDS011;6795;51.232;3.764;2022-07-23T13:01:26;1.65;;;1.55;;
13445;SDS011;6795;51.232;3.764;2022-07-23T13:04:00;3.65;;;3.30;;
13445;SDS011;6795;51.232;3.764;2022-07-23T13:06:39;3.08;;;2.80;;
13445;SDS011;6795;51.232;3.764;2022-07-23T13:09:10;1.92;;;1.83;;
13445;SDS011;6795;51.232;3.764;2022-07-23T13:11:41;2.10;;;1.90;;
13445;SDS011;6795;51.232;3.764;2022-07-23T13:14:10;2.28;;;1.63;;
13445;SDS011;6795;51.232;3.764;2022-07-23T13:16:40;2.03;;;1.20;;
13445;SDS011;6795;51.232;3.764;2022-07-23T13:19:09;2.17;;;1.85;;
13445;SDS011;6795;51.232;3.764;2022-07-23T13:21:43;2.50;;;2.00;;
13445;SDS011;6795;51.232;3.764;2022-07-23T13:24:11;3.85;;;2.25;;
13445;SDS011;6795;51.232;3.764;2022-07-23T13:26:41;3.33;;;2.15;;
13445;SDS011;6795;51.232;3.764;2022-07-23T13:29:09;2.20;;;1.98;;
13445;SDS011;6795;51.232;3.764;2022-07-23T13:31:38;3.05;;;2.83;;
13445;SDS011;6795;51.232;3.764;2022-07-23T13:34:08;2.70;;;2.45;;
13445;SDS011;6795;51.232;3.764;2022-07-23T13:36:36;2.78;;;2.35;;
13445;SDS011;6795;51.232;3.764;2022-07-23T13:39:06;2.50;;;2.30;;
13445;SDS011;6795;51.232;3.764;2022-07-23T13:41:35;2.72;;;2.30;;
13445;SDS011;6795;51.232;3.764;2022-07-23T13:44:05;2.83;;;2.53;;
13445;SDS011;6795;51.232;3.764;2022-07-23T13:46:33;2.97;;;2.78;;
13445;SDS011;6795;51.232;3.764;2022-07-23T13:49:02;2.30;;;1.63;;
13445;SDS011;6795;51.232;3.764;2022-07-23T13:51:36;1.92;;;1.83;;
13445;SDS011;6795;51.232;3.764;2022-07-23T13:54:08;2.08;;;1.50;;
13445;SDS011;6795;51.232;3.764;2022-07-23T13:56:36;1.88;;;1.75;;
13445;SDS011;6795;51.232;3.764;2022-07-23T13:59:04;2.60;;;2.40;;
13445;SDS011;6795;51.232;3.764;2022-07-23T14:01:33;2.38;;;2.17;;
13445;SDS011;6795;51.232;3.764;2022-07-23T14:04:21;3.45;;;2.22;;
13445;SDS011;6795;51.232;3.764;2022-07-23T14:06:51;1.90;;;1.58;;
13445;SDS011;6795;51.232;3.764;2022-07-23T14:09:20;2.97;;;2.35;;
13445;SDS011;6795;51.232;3.764;2022-07-23T14:11:51;2.53;;;2.33;;
13445;SDS011;6795;51.232;3.764;2022-07-23T14:14:19;2.20;;;1.80;;
13445;SDS011;6795;51.232;3.764;2022-07-23T14:16:48;2.80;;;1.55;;
13445;SDS011;6795;51.232;3.764;2022-07-23T14:19:16;2.90;;;2.55;;
13445;SDS011;6795;51.232;3.764;2022-07-23T14:21:45;2.38;;;2.20;;
13445;SDS011;6795;51.232;3.764;2022-07-23T14:24:16;2.55;;;2.42;;
13445;SDS011;6795;51.232;3.764;2022-07-23T14:26:47;2.33;;;2.13;;
13445;SDS011;6795;51.232;3.764;2022-07-23T14:29:15;2.10;;;1.98;;
13445;SDS011;6795;51.232;3.764;2022-07-23T14:31:45;2.53;;;2.17;;
13445;SDS011;6795;51.232;3.764;2022-07-23T14:34:15;2.65;;;2.45;;
13445;SDS011;6795;51.232;3.764;2022-07-23T14:36:53;2.03;;;1.92;;
13445;SDS011;6795;51.232;3.764;2022-07-23T14:39:23;2.75;;;2.55;;
13445;SDS011;6795;51.232;3.764;2022-07-23T14:41:52;2.55;;;2.35;;
13445;SDS011;6795;51.232;3.764;2022-07-23T14:44:21;1.90;;;1.73;;
13445;SDS011;6795;51.232;3.764;2022-07-23T14:46:50;3.08;;;2.03;;
13445;SDS011;6795;51.232;3.764;2022-07-23T14:49:19;2.63;;;2.42;;
13445;SDS011;6795;51.232;3.764;2022-07-23T14:51:52;2.58;;;2.38;;
13445;SDS011;6795;51.232;3.764;2022-07-23T14:54:23;2.65;;;2.53;;
13445;SDS011;6795;51.232;3.764;2022-07-23T14:56:53;2.88;;;2.67;;
13445;SDS011;6795;51.232;3.764;2022-07-23T14:59:21;3.28;;;3.03;;
13445;SDS011;6795;51.232;3.764;2022-07-23T15:01:51;2.90;;;2.70;;
13445;SDS011;6795;51.232;3.764;2022-07-23T15:04:22;2.75;;;2.55;;
13445;SDS011;6795;51.232;3.764;2022-07-23T15:07:06;3.13;;;2.90;;
13445;SDS011;6795;51.232;3.764;2022-07-23T15:09:38;4.72;;;2.92;;
13445;SDS011;6795;51.232;3.764;2022-07-23T15:12:07;3.17;;;1.83;;
13445;SDS011;6795;51.232;3.764;2022-07-23T15:14:56;3.85;;;2.30;;
13445;SDS011;6795;51.232;3.764;2022-07-23T15:17:25;2.85;;;2.65;;
13445;SDS011;6795;51.232;3.764;2022-07-23T15:19:53;3.80;;;2.60;;
13445;SDS011;6795;51.232;3.764;2022-07-23T15:22:24;2.42;;;1.80;;
13445;SDS011;6795;51.232;3.764;2022-07-23T15:24:56;3.30;;;2.28;;
13445;SDS011;6795;51.232;3.764;2022-07-23T15:27:24;3.20;;;2.45;;
13445;SDS011;6795;51.232;3.764;2022-07-23T15:29:56;3.50;;;2.75;;